sensor_id;sensor_type;location;lat;lon;timestamp;P1;durP1;ratioP1;P2;durP2;ratioP2
44862;SDS011;30597;49.628;10.850;2023-12-20T00:01:18;3.40;;;3.10;;
44862;SDS011;30597;49.628;10.850;2023-12-20T00:03:43;3.43;;;3.10;;
44862;SDS011;30597;49.628;10.850;2023-12-20T00:06:09;3.07;;;2.70;;
44862;SDS011;30597;49.628;10.850;2023-12-20T00:08:35;2.63;;;2.43;;
44862;SDS011;30597;49.628;10.850;2023-12-20T00:11:01;2.73;;;2.53;;
44862;SDS011;30597;49.628;10.850;2023-12-20T00:13:26;4.30;;;2.90;;
44862;SDS011;30597;49.628;10.850;2023-12-20T00:15:52;2.40;;;2.20;;
44862;SDS011;30597;49.628;10.850;2023-12-20T00:18:18;2.40;;;2.20;;
44862;SDS011;30597;49.628;10.850;2023-12-20T00:20:43;3.20;;;2.90;;
44862;SDS011;30597;49.628;10.850;2023-12-20T00:23:09;2.53;;;2.23;;
44862;SDS011;30597;49.628;10.850;2023-12-20T00:25:35;3.83;;;2.77;;
44862;SDS011;30597;49.628;10.850;2023-12-20T00:28:00;3.30;;;2.80;;
44862;SDS011;30597;49.628;10.850;2023-12-20T00:30:27;2.10;;;1.90;;
44862;SDS011;30597;49.628;10.850;2023-12-20T00:32:53;3.00;;;2.70;;
44862;SDS011;30597;49.628;10.850;2023-12-20T00:35:18;2.60;;;2.40;;
44862;SDS011;30597;49.628;10.850;2023-12-20T00:37:44;2.40;;;2.20;;
44862;SDS011;30597;49.628;10.850;2023-12-20T00:40:10;2.60;;;2.33;;
44862;SDS011;30597;49.628;10.850;2023-12-20T00:42:36;3.10;;;2.60;;
44862;SDS011;30597;49.628;10.850;2023-12-20T00:45:02;2.33;;;2.17;;
44862;SDS011;30597;49.628;10.850;2023-12-20T00:47:29;3.00;;;2.70;;
44862;SDS011;30597;49.628;10.850;2023-12-20T00:49:55;2.43;;;2.23;;
44862;SDS011;30597;49.628;10.850;2023-12-20T00:52:21;2.43;;;2.20;;
44862;SDS011;30597;49.628;10.850;2023-12-20T00:54:47;2.83;;;2.57;;
44862;SDS011;30597;49.628;10.850;2023-12-20T00:57:13;2.00;;;1.90;;
44862;SDS011;30597;49.628;10.850;2023-12-20T00:59:39;2.37;;;2.17;;
44862;SDS011;30597;49.628;10.850;2023-12-20T01:02:04;2.30;;;2.10;;
44862;SDS011;30597;49.628;10.850;2023-12-20T01:04:30;2.17;;;1.97;;
44862;SDS011;30597;49.628;10.850;2023-12-20T01:06:55;2.43;;;2.23;;
44862;SDS011;30597;49.628;10.850;2023-12-20T01:09:21;2.20;;;2.00;;
44862;SDS011;30597;49.628;10.850;2023-12-20T01:11:51;2.10;;;2.00;;
44862;SDS011;30597;49.628;10.850;2023-12-20T01:14:20;2.47;;;2.00;;
44862;SDS011;30597;49.628;10.850;2023-12-20T01:16:47;2.23;;;2.00;;
44862;SDS011;30597;49.628;10.850;2023-12-20T01:19:13;2.60;;;2.40;;
44862;SDS011;30597;49.628;10.850;2023-12-20T01:21:39;2.40;;;2.20;;
44862;SDS011;30597;49.628;10.850;2023-12-20T01:24:05;2.30;;;1.90;;
44862;SDS011;30597;49.628;10.850;2023-12-20T01:26:30;2.77;;;2.50;;
44862;SDS011;30597;49.628;10.850;2023-12-20T01:28:56;2.40;;;2.20;;
44862;SDS011;30597;49.628;10.850;2023-12-20T01:31:22;2.43;;;2.23;;
44862;SDS011;30597;49.628;10.850;2023-12-20T01:33:48;2.20;;;2.00;;
44862;SDS011;30597;49.628;10.850;2023-12-20T01:36:13;2.53;;;1.90;;
44862;SDS011;30597;49.628;10.850;2023-12-20T01:38:39;1.70;;;1.60;;
44862;SDS011;30597;49.628;10.850;2023-12-20T01:41:05;2.20;;;2.07;;
44862;SDS011;30597;49.628;10.850;2023-12-20T01:43:30;2.20;;;1.77;;
44862;SDS011;30597;49.628;10.850;2023-12-20T01:45:56;1.70;;;1.60;;
44862;SDS011;30597;49.628;10.850;2023-12-20T01:48:23;2.23;;;1.93;;
44862;SDS011;30597;49.628;10.850;2023-12-20T01:50:49;1.70;;;1.60;;
44862;SDS011;30597;49.628;10.850;2023-12-20T01:53:16;2.20;;;2.00;;
44862;SDS011;30597;49.628;10.850;2023-12-20T01:55:42;2.40;;;2.20;;
44862;SDS011;30597;49.628;10.850;2023-12-20T01:58:09;1.87;;;1.77;;
44862;SDS011;30597;49.628;10.850;2023-12-20T02:00:35;1.77;;;1.67;;
44862;SDS011;30597;49.628;10.850;2023-12-20T02:03:02;1.80;;;1.70;;
44862;SDS011;30597;49.628;10.850;2023-12-20T02:05:32;2.00;;;1.80;;
44862;SDS011;30597;49.628;10.850;2023-12-20T02:07:59;2.33;;;2.13;;
44862;SDS011;30597;49.628;10.850;2023-12-20T02:10:25;1.93;;;1.83;;
44862;SDS011;30597;49.628;10.850;2023-12-20T02:12:52;2.40;;;2.20;;
44862;SDS011;30597;49.628;10.850;2023-12-20T02:15:17;1.70;;;1.60;;
44862;SDS011;30597;49.628;10.850;2023-12-20T02:17:43;2.07;;;1.87;;
44862;SDS011;30597;49.628;10.850;2023-12-20T02:20:09;1.90;;;1.80;;
44862;SDS011;30597;49.628;10.850;2023-12-20T02:22:35;1.50;;;1.40;;
44862;SDS011;30597;49.628;10.850;2023-12-20T02:25:01;3.70;;;1.80;;
44862;SDS011;30597;49.628;10.850;2023-12-20T02:27:26;1.80;;;1.70;;
44862;SDS011;30597;49.628;10.850;2023-12-20T02:29:53;1.60;;;1.50;;
44862;SDS011;30597;49.628;10.850;2023-12-20T02:32:19;1.80;;;1.70;;
44862;SDS011;30597;49.628;10.850;2023-12-20T02:34:47;1.73;;;1.63;;
44862;SDS011;30597;49.628;10.850;2023-12-20T02:37:13;1.60;;;1.50;;
44862;SDS011;30597;49.628;10.850;2023-12-20T02:39:39;1.53;;;1.43;;
44862;SDS011;30597;49.628;10.850;2023-12-20T02:42:04;1.93;;;1.83;;
44862;SDS011;30597;49.628;10.850;2023-12-20T02:44:30;1.57;;;1.47;;
44862;SDS011;30597;49.628;10.850;2023-12-20T02:46:55;1.50;;;1.33;;
44862;SDS011;30597;49.628;10.850;2023-12-20T02:49:21;1.60;;;1.50;;
44862;SDS011;30597;49.628;10.850;2023-12-20T02:51:46;1.90;;;1.80;;
44862;SDS011;30597;49.628;10.850;2023-12-20T02:54:12;1.50;;;1.40;;
44862;SDS011;30597;49.628;10.850;2023-12-20T02:56:38;1.53;;;1.43;;
44862;SDS011;30597;49.628;10.850;2023-12-20T02:59:03;1.63;;;1.53;;
44862;SDS011;30597;49.628;10.850;2023-12-20T03:01:33;1.50;;;1.40;;
44862;SDS011;30597;49.628;10.850;2023-12-20T03:03:59;2.03;;;1.67;;
44862;SDS011;30597;49.628;10.850;2023-12-20T03:06:25;1.57;;;1.47;;
44862;SDS011;30597;49.628;10.850;2023-12-20T03:08:51;1.53;;;1.43;;
44862;SDS011;30597;49.628;10.850;2023-12-20T03:11:17;1.50;;;1.40;;
44862;SDS011;30597;49.628;10.850;2023-12-20T03:13:48;1.50;;;1.40;;
44862;SDS011;30597;49.628;10.850;2023-12-20T03:16:13;1.20;;;1.10;;
44862;SDS011;30597;49.628;10.850;2023-12-20T03:18:41;1.20;;;1.10;;
44862;SDS011;30597;49.628;10.850;2023-12-20T03:21:06;1.60;;;1.50;;
44862;SDS011;30597;49.628;10.850;2023-12-20T03:23:32;1.73;;;1.37;;
44862;SDS011;30597;49.628;10.850;2023-12-20T03:25:58;1.57;;;1.17;;
44862;SDS011;30597;49.628;10.850;2023-12-20T03:28:27;1.20;;;1.10;;
44862;SDS011;30597;49.628;10.850;2023-12-20T03:30:53;1.37;;;1.20;;
44862;SDS011;30597;49.628;10.850;2023-12-20T03:33:18;1.40;;;1.30;;
44862;SDS011;30597;49.628;10.850;2023-12-20T03:35:44;1.20;;;1.10;;
44862;SDS011;30597;49.628;10.850;2023-12-20T03:38:10;2.03;;;1.47;;
44862;SDS011;30597;49.628;10.850;2023-12-20T03:40:35;1.43;;;1.33;;
44862;SDS011;30597;49.628;10.850;2023-12-20T03:43:01;1.20;;;1.03;;
44862;SDS011;30597;49.628;10.850;2023-12-20T03:45:27;1.80;;;1.70;;
44862;SDS011;30597;49.628;10.850;2023-12-20T03:47:52;1.20;;;1.10;;
44862;SDS011;30597;49.628;10.850;2023-12-20T03:50:24;1.40;;;1.30;;
44862;SDS011;30597;49.628;10.850;2023-12-20T03:52:50;1.40;;;1.30;;
44862;SDS011;30597;49.628;10.850;2023-12-20T03:55:17;1.40;;;1.30;;
44862;SDS011;30597;49.628;10.850;2023-12-20T03:57:42;1.47;;;1.37;;
44862;SDS011;30597;49.628;10.850;2023-12-20T04:00:08;1.10;;;1.00;;
44862;SDS011;30597;49.628;10.850;2023-12-20T04:02:36;1.53;;;1.43;;
44862;SDS011;30597;49.628;10.850;2023-12-20T04:05:01;1.60;;;1.50;;
44862;SDS011;30597;49.628;10.850;2023-12-20T04:07:27;1.37;;;1.27;;
44862;SDS011;30597;49.628;10.850;2023-12-20T04:09:53;1.37;;;1.27;;
44862;SDS011;30597;49.628;10.850;2023-12-20T04:12:18;1.10;;;1.10;;
44862;SDS011;30597;49.628;10.850;2023-12-20T04:14:44;1.40;;;1.30;;
44862;SDS011;30597;49.628;10.850;2023-12-20T04:17:09;1.23;;;1.17;;
44862;SDS011;30597;49.628;10.850;2023-12-20T04:19:35;1.40;;;1.30;;
44862;SDS011;30597;49.628;10.850;2023-12-20T04:22:00;1.30;;;1.20;;
44862;SDS011;30597;49.628;10.850;2023-12-20T04:24:26;1.13;;;1.03;;
44862;SDS011;30597;49.628;10.850;2023-12-20T04:26:51;1.23;;;1.13;;
44862;SDS011;30597;49.628;10.850;2023-12-20T04:29:17;1.20;;;1.10;;
44862;SDS011;30597;49.628;10.850;2023-12-20T04:31:42;0.97;;;0.97;;
44862;SDS011;30597;49.628;10.850;2023-12-20T04:34:08;1.10;;;1.00;;
44862;SDS011;30597;49.628;10.850;2023-12-20T04:36:34;1.10;;;1.00;;
44862;SDS011;30597;49.628;10.850;2023-12-20T04:38:59;1.40;;;1.30;;
44862;SDS011;30597;49.628;10.850;2023-12-20T04:41:25;1.07;;;0.90;;
44862;SDS011;30597;49.628;10.850;2023-12-20T04:43:51;1.27;;;1.17;;
44862;SDS011;30597;49.628;10.850;2023-12-20T04:46:17;1.07;;;0.97;;
44862;SDS011;30597;49.628;10.850;2023-12-20T04:48:42;0.90;;;0.90;;
44862;SDS011;30597;49.628;10.850;2023-12-20T04:51:08;1.20;;;1.07;;
44862;SDS011;30597;49.628;10.850;2023-12-20T04:53:34;1.50;;;1.10;;
44862;SDS011;30597;49.628;10.850;2023-12-20T04:55:59;1.10;;;1.00;;
44862;SDS011;30597;49.628;10.850;2023-12-20T04:58:25;1.13;;;1.03;;
44862;SDS011;30597;49.628;10.850;2023-12-20T05:00:50;1.10;;;1.10;;
44862;SDS011;30597;49.628;10.850;2023-12-20T05:03:16;0.90;;;0.90;;
44862;SDS011;30597;49.628;10.850;2023-12-20T05:05:41;1.10;;;1.00;;
44862;SDS011;30597;49.628;10.850;2023-12-20T05:08:07;0.97;;;0.97;;
44862;SDS011;30597;49.628;10.850;2023-12-20T05:10:32;1.10;;;1.00;;
44862;SDS011;30597;49.628;10.850;2023-12-20T05:12:59;0.80;;;0.70;;
44862;SDS011;30597;49.628;10.850;2023-12-20T05:15:24;1.00;;;1.00;;
44862;SDS011;30597;49.628;10.850;2023-12-20T05:17:50;1.20;;;1.10;;
44862;SDS011;30597;49.628;10.850;2023-12-20T05:20:15;1.00;;;1.00;;
44862;SDS011;30597;49.628;10.850;2023-12-20T05:22:41;1.77;;;1.00;;
44862;SDS011;30597;49.628;10.850;2023-12-20T05:25:06;1.00;;;0.90;;
44862;SDS011;30597;49.628;10.850;2023-12-20T05:27:32;0.90;;;0.90;;
44862;SDS011;30597;49.628;10.850;2023-12-20T05:29:58;1.00;;;0.87;;
44862;SDS011;30597;49.628;10.850;2023-12-20T05:32:23;0.80;;;0.80;;
44862;SDS011;30597;49.628;10.850;2023-12-20T05:34:49;0.90;;;0.90;;
44862;SDS011;30597;49.628;10.850;2023-12-20T05:37:14;1.10;;;1.00;;
44862;SDS011;30597;49.628;10.850;2023-12-20T05:39:40;0.80;;;0.80;;
44862;SDS011;30597;49.628;10.850;2023-12-20T05:42:05;1.03;;;0.97;;
44862;SDS011;30597;49.628;10.850;2023-12-20T05:44:31;1.10;;;1.00;;
44862;SDS011;30597;49.628;10.850;2023-12-20T05:46:56;0.83;;;0.80;;
44862;SDS011;30597;49.628;10.850;2023-12-20T05:49:22;0.80;;;0.80;;
44862;SDS011;30597;49.628;10.850;2023-12-20T05:51:47;1.43;;;1.10;;
44862;SDS011;30597;49.628;10.850;2023-12-20T05:54:13;1.00;;;0.97;;
44862;SDS011;30597;49.628;10.850;2023-12-20T05:56:39;0.80;;;0.80;;
44862;SDS011;30597;49.628;10.850;2023-12-20T05:59:04;1.07;;;1.00;;
44862;SDS011;30597;49.628;10.850;2023-12-20T06:01:30;1.00;;;0.80;;
44862;SDS011;30597;49.628;10.850;2023-12-20T06:03:55;1.03;;;0.93;;
44862;SDS011;30597;49.628;10.850;2023-12-20T06:06:21;0.90;;;0.83;;
44862;SDS011;30597;49.628;10.850;2023-12-20T06:08:46;0.80;;;0.80;;
44862;SDS011;30597;49.628;10.850;2023-12-20T06:11:12;1.10;;;0.90;;
44862;SDS011;30597;49.628;10.850;2023-12-20T06:13:38;0.80;;;0.80;;
44862;SDS011;30597;49.628;10.850;2023-12-20T06:16:05;0.80;;;0.80;;
44862;SDS011;30597;49.628;10.850;2023-12-20T06:18:32;0.90;;;0.90;;
44862;SDS011;30597;49.628;10.850;2023-12-20T06:20:57;0.80;;;0.80;;
44862;SDS011;30597;49.628;10.850;2023-12-20T06:23:23;0.90;;;0.90;;
44862;SDS011;30597;49.628;10.850;2023-12-20T06:25:48;0.83;;;0.80;;
44862;SDS011;30597;49.628;10.850;2023-12-20T06:28:14;0.73;;;0.70;;
44862;SDS011;30597;49.628;10.850;2023-12-20T06:30:40;0.80;;;0.70;;
44862;SDS011;30597;49.628;10.850;2023-12-20T06:33:05;1.00;;;0.73;;
44862;SDS011;30597;49.628;10.850;2023-12-20T06:35:31;0.90;;;0.90;;
44862;SDS011;30597;49.628;10.850;2023-12-20T06:37:57;1.10;;;1.00;;
44862;SDS011;30597;49.628;10.850;2023-12-20T06:40:23;1.03;;;0.93;;
44862;SDS011;30597;49.628;10.850;2023-12-20T06:42:48;1.17;;;1.00;;
44862;SDS011;30597;49.628;10.850;2023-12-20T06:45:14;0.83;;;0.80;;
44862;SDS011;30597;49.628;10.850;2023-12-20T06:47:39;1.03;;;0.90;;
44862;SDS011;30597;49.628;10.850;2023-12-20T06:50:05;1.20;;;1.10;;
44862;SDS011;30597;49.628;10.850;2023-12-20T06:52:33;1.33;;;1.23;;
44862;SDS011;30597;49.628;10.850;2023-12-20T06:54:59;0.70;;;0.70;;
44862;SDS011;30597;49.628;10.850;2023-12-20T06:57:24;1.10;;;1.00;;
44862;SDS011;30597;49.628;10.850;2023-12-20T06:59:51;1.00;;;0.90;;
44862;SDS011;30597;49.628;10.850;2023-12-20T07:02:17;1.23;;;1.10;;
44862;SDS011;30597;49.628;10.850;2023-12-20T07:04:42;1.10;;;1.00;;
44862;SDS011;30597;49.628;10.850;2023-12-20T07:07:08;1.10;;;1.00;;
44862;SDS011;30597;49.628;10.850;2023-12-20T07:09:33;1.40;;;1.30;;
44862;SDS011;30597;49.628;10.850;2023-12-20T07:12:01;1.40;;;1.30;;
44862;SDS011;30597;49.628;10.850;2023-12-20T07:14:27;1.33;;;1.23;;
44862;SDS011;30597;49.628;10.850;2023-12-20T07:16:53;1.17;;;1.07;;
44862;SDS011;30597;49.628;10.850;2023-12-20T07:19:18;1.40;;;1.30;;
44862;SDS011;30597;49.628;10.850;2023-12-20T07:21:44;1.60;;;1.37;;
44862;SDS011;30597;49.628;10.850;2023-12-20T07:24:09;1.20;;;1.10;;
44862;SDS011;30597;49.628;10.850;2023-12-20T07:26:35;1.10;;;1.00;;
44862;SDS011;30597;49.628;10.850;2023-12-20T07:29:04;1.07;;;0.97;;
44862;SDS011;30597;49.628;10.850;2023-12-20T07:31:29;1.90;;;1.50;;
44862;SDS011;30597;49.628;10.850;2023-12-20T07:33:55;1.77;;;1.30;;
44862;SDS011;30597;49.628;10.850;2023-12-20T07:36:21;1.20;;;1.10;;
44862;SDS011;30597;49.628;10.850;2023-12-20T07:38:46;1.60;;;1.40;;
44862;SDS011;30597;49.628;10.850;2023-12-20T07:41:12;1.40;;;1.30;;
44862;SDS011;30597;49.628;10.850;2023-12-20T07:43:38;1.40;;;1.30;;
44862;SDS011;30597;49.628;10.850;2023-12-20T07:46:04;1.73;;;1.63;;
44862;SDS011;30597;49.628;10.850;2023-12-20T07:48:31;1.50;;;1.40;;
44862;SDS011;30597;49.628;10.850;2023-12-20T07:50:56;1.60;;;1.40;;
44862;SDS011;30597;49.628;10.850;2023-12-20T07:53:22;1.63;;;1.53;;
44862;SDS011;30597;49.628;10.850;2023-12-20T07:55:47;1.20;;;1.10;;
44862;SDS011;30597;49.628;10.850;2023-12-20T07:58:13;1.70;;;1.50;;
44862;SDS011;30597;49.628;10.850;2023-12-20T08:00:38;1.43;;;1.23;;
44862;SDS011;30597;49.628;10.850;2023-12-20T08:03:04;1.57;;;1.47;;
44862;SDS011;30597;49.628;10.850;2023-12-20T08:05:29;1.50;;;1.40;;
44862;SDS011;30597;49.628;10.850;2023-12-20T08:07:55;1.40;;;1.30;;
44862;SDS011;30597;49.628;10.850;2023-12-20T08:10:20;1.63;;;1.53;;
44862;SDS011;30597;49.628;10.850;2023-12-20T08:12:46;1.73;;;1.63;;
44862;SDS011;30597;49.628;10.850;2023-12-20T08:15:11;1.33;;;1.23;;
44862;SDS011;30597;49.628;10.850;2023-12-20T08:17:37;1.40;;;1.30;;
44862;SDS011;30597;49.628;10.850;2023-12-20T08:20:03;1.50;;;1.40;;
44862;SDS011;30597;49.628;10.850;2023-12-20T08:22:29;1.30;;;1.20;;
44862;SDS011;30597;49.628;10.850;2023-12-20T08:24:55;1.40;;;1.30;;
44862;SDS011;30597;49.628;10.850;2023-12-20T08:27:20;1.30;;;1.20;;
44862;SDS011;30597;49.628;10.850;2023-12-20T08:29:46;1.23;;;1.13;;
44862;SDS011;30597;49.628;10.850;2023-12-20T08:32:13;1.63;;;1.30;;
44862;SDS011;30597;49.628;10.850;2023-12-20T08:34:39;1.00;;;1.00;;
44862;SDS011;30597;49.628;10.850;2023-12-20T08:37:05;1.80;;;1.33;;
44862;SDS011;30597;49.628;10.850;2023-12-20T08:39:30;1.30;;;1.20;;
44862;SDS011;30597;49.628;10.850;2023-12-20T08:41:58;1.50;;;1.40;;
44862;SDS011;30597;49.628;10.850;2023-12-20T08:44:24;1.67;;;1.50;;
44862;SDS011;30597;49.628;10.850;2023-12-20T08:46:49;1.20;;;1.10;;
44862;SDS011;30597;49.628;10.850;2023-12-20T08:49:15;1.47;;;1.33;;
44862;SDS011;30597;49.628;10.850;2023-12-20T08:51:40;1.90;;;1.70;;
44862;SDS011;30597;49.628;10.850;2023-12-20T08:54:07;1.43;;;1.33;;
44862;SDS011;30597;49.628;10.850;2023-12-20T08:56:35;1.50;;;1.40;;
44862;SDS011;30597;49.628;10.850;2023-12-20T08:59:01;1.27;;;1.17;;
44862;SDS011;30597;49.628;10.850;2023-12-20T09:01:27;1.40;;;1.30;;
44862;SDS011;30597;49.628;10.850;2023-12-20T09:03:52;1.80;;;1.60;;
44862;SDS011;30597;49.628;10.850;2023-12-20T09:06:18;2.00;;;1.80;;
44862;SDS011;30597;49.628;10.850;2023-12-20T09:08:43;1.47;;;1.37;;
44862;SDS011;30597;49.628;10.850;2023-12-20T09:11:09;1.43;;;1.33;;
44862;SDS011;30597;49.628;10.850;2023-12-20T09:13:35;1.27;;;1.20;;
44862;SDS011;30597;49.628;10.850;2023-12-20T09:16:01;1.40;;;1.30;;
44862;SDS011;30597;49.628;10.850;2023-12-20T09:18:27;1.67;;;1.30;;
44862;SDS011;30597;49.628;10.850;2023-12-20T09:20:53;1.47;;;1.27;;
44862;SDS011;30597;49.628;10.850;2023-12-20T09:23:19;1.80;;;1.57;;
44862;SDS011;30597;49.628;10.850;2023-12-20T09:25:45;1.90;;;1.70;;
44862;SDS011;30597;49.628;10.850;2023-12-20T09:28:11;1.50;;;1.40;;
44862;SDS011;30597;49.628;10.850;2023-12-20T09:30:36;1.60;;;1.50;;
44862;SDS011;30597;49.628;10.850;2023-12-20T09:33:04;1.40;;;1.30;;
44862;SDS011;30597;49.628;10.850;2023-12-20T09:35:31;2.20;;;1.80;;
44862;SDS011;30597;49.628;10.850;2023-12-20T09:37:57;1.70;;;1.60;;
44862;SDS011;30597;49.628;10.850;2023-12-20T09:40:23;1.93;;;1.73;;
44862;SDS011;30597;49.628;10.850;2023-12-20T09:42:55;1.53;;;1.43;;
44862;SDS011;30597;49.628;10.850;2023-12-20T09:45:35;1.83;;;1.67;;
44862;SDS011;30597;49.628;10.850;2023-12-20T09:48:01;1.70;;;1.30;;
44862;SDS011;30597;49.628;10.850;2023-12-20T09:50:30;1.50;;;1.30;;
44862;SDS011;30597;49.628;10.850;2023-12-20T09:52:57;1.60;;;1.20;;
44862;SDS011;30597;49.628;10.850;2023-12-20T09:55:24;1.77;;;1.60;;
44862;SDS011;30597;49.628;10.850;2023-12-20T09:57:51;1.37;;;1.27;;
44862;SDS011;30597;49.628;10.850;2023-12-20T10:00:17;1.70;;;1.60;;
44862;SDS011;30597;49.628;10.850;2023-12-20T10:03:00;1.30;;;1.20;;
44862;SDS011;30597;49.628;10.850;2023-12-20T10:05:30;1.57;;;1.47;;
44862;SDS011;30597;49.628;10.850;2023-12-20T10:07:56;1.40;;;1.30;;
44862;SDS011;30597;49.628;10.850;2023-12-20T10:10:23;1.50;;;1.40;;
44862;SDS011;30597;49.628;10.850;2023-12-20T10:13:02;1.40;;;1.30;;
44862;SDS011;30597;49.628;10.850;2023-12-20T10:15:35;1.83;;;1.70;;
44862;SDS011;30597;49.628;10.850;2023-12-20T10:18:02;1.33;;;1.23;;
44862;SDS011;30597;49.628;10.850;2023-12-20T10:20:29;1.60;;;1.30;;
44862;SDS011;30597;49.628;10.850;2023-12-20T10:22:55;1.37;;;1.27;;
44862;SDS011;30597;49.628;10.850;2023-12-20T10:25:22;3.73;;;1.67;;
44862;SDS011;30597;49.628;10.850;2023-12-20T10:27:47;1.60;;;1.50;;
44862;SDS011;30597;49.628;10.850;2023-12-20T10:30:14;2.17;;;1.50;;
44862;SDS011;30597;49.628;10.850;2023-12-20T10:32:40;1.20;;;1.10;;
44862;SDS011;30597;49.628;10.850;2023-12-20T10:35:08;1.50;;;1.40;;
44862;SDS011;30597;49.628;10.850;2023-12-20T10:37:37;1.70;;;1.60;;
44862;SDS011;30597;49.628;10.850;2023-12-20T10:40:03;1.77;;;1.67;;
44862;SDS011;30597;49.628;10.850;2023-12-20T10:42:30;1.73;;;1.50;;
44862;SDS011;30597;49.628;10.850;2023-12-20T10:44:58;1.97;;;1.70;;
44862;SDS011;30597;49.628;10.850;2023-12-20T10:47:25;1.27;;;1.17;;
44862;SDS011;30597;49.628;10.850;2023-12-20T10:49:52;1.50;;;1.33;;
44862;SDS011;30597;49.628;10.850;2023-12-20T10:52:18;1.50;;;1.30;;
44862;SDS011;30597;49.628;10.850;2023-12-20T10:54:47;2.63;;;1.40;;
44862;SDS011;30597;49.628;10.850;2023-12-20T10:57:13;1.40;;;1.30;;
44862;SDS011;30597;49.628;10.850;2023-12-20T10:59:41;1.50;;;1.40;;
44862;SDS011;30597;49.628;10.850;2023-12-20T11:02:10;3.13;;;1.60;;
44862;SDS011;30597;49.628;10.850;2023-12-20T11:04:53;1.43;;;1.30;;
44862;SDS011;30597;49.628;10.850;2023-12-20T11:07:32;1.40;;;1.30;;
44862;SDS011;30597;49.628;10.850;2023-12-20T11:15:15;2.90;;;2.10;;
44862;SDS011;30597;49.628;10.850;2023-12-20T11:17:44;2.37;;;1.83;;
44862;SDS011;30597;49.628;10.850;2023-12-20T11:20:11;2.37;;;2.10;;
44862;SDS011;30597;49.628;10.850;2023-12-20T11:22:38;2.07;;;1.97;;
44862;SDS011;30597;49.628;10.850;2023-12-20T11:25:16;2.50;;;2.20;;
44862;SDS011;30597;49.628;10.850;2023-12-20T11:27:43;3.50;;;2.43;;
44862;SDS011;30597;49.628;10.850;2023-12-20T11:30:09;2.60;;;2.40;;
44862;SDS011;30597;49.628;10.850;2023-12-20T11:32:35;5.73;;;3.03;;
44862;SDS011;30597;49.628;10.850;2023-12-20T11:35:16;3.30;;;2.90;;
44862;SDS011;30597;49.628;10.850;2023-12-20T11:37:44;4.80;;;2.97;;
44862;SDS011;30597;49.628;10.850;2023-12-20T11:40:13;5.83;;;3.53;;
44862;SDS011;30597;49.628;10.850;2023-12-20T11:42:48;6.67;;;3.40;;
44862;SDS011;30597;49.628;10.850;2023-12-20T11:45:15;5.20;;;3.37;;
44862;SDS011;30597;49.628;10.850;2023-12-20T11:47:45;7.20;;;3.90;;
44862;SDS011;30597;49.628;10.850;2023-12-20T11:50:11;3.90;;;3.50;;
44862;SDS011;30597;49.628;10.850;2023-12-20T11:52:37;7.00;;;4.17;;
44862;SDS011;30597;49.628;10.850;2023-12-20T11:55:03;3.37;;;3.07;;
44862;SDS011;30597;49.628;10.850;2023-12-20T11:57:30;4.17;;;3.40;;
44862;SDS011;30597;49.628;10.850;2023-12-20T11:59:55;4.10;;;3.30;;
44862;SDS011;30597;49.628;10.850;2023-12-20T12:02:21;4.00;;;3.70;;
44862;SDS011;30597;49.628;10.850;2023-12-20T12:04:48;4.70;;;3.73;;
44862;SDS011;30597;49.628;10.850;2023-12-20T12:07:15;3.93;;;3.50;;
44862;SDS011;30597;49.628;10.850;2023-12-20T12:09:41;4.17;;;3.77;;
44862;SDS011;30597;49.628;10.850;2023-12-20T12:12:07;3.70;;;3.17;;
44862;SDS011;30597;49.628;10.850;2023-12-20T12:14:33;4.77;;;4.00;;
44862;SDS011;30597;49.628;10.850;2023-12-20T12:17:01;4.30;;;3.90;;
44862;SDS011;30597;49.628;10.850;2023-12-20T12:19:26;4.23;;;3.50;;
44862;SDS011;30597;49.628;10.850;2023-12-20T12:22:05;4.37;;;3.70;;
44862;SDS011;30597;49.628;10.850;2023-12-20T12:24:33;4.60;;;4.20;;
44862;SDS011;30597;49.628;10.850;2023-12-20T12:26:59;6.07;;;3.90;;
44862;SDS011;30597;49.628;10.850;2023-12-20T12:29:24;4.10;;;3.70;;
44862;SDS011;30597;49.628;10.850;2023-12-20T12:31:50;4.87;;;4.37;;
44862;SDS011;30597;49.628;10.850;2023-12-20T12:34:17;4.07;;;3.57;;
44862;SDS011;30597;49.628;10.850;2023-12-20T12:36:42;5.63;;;4.50;;
44862;SDS011;30597;49.628;10.850;2023-12-20T12:39:08;4.67;;;3.80;;
44862;SDS011;30597;49.628;10.850;2023-12-20T12:41:36;5.30;;;4.80;;
44862;SDS011;30597;49.628;10.850;2023-12-20T12:44:02;4.67;;;4.10;;
44862;SDS011;30597;49.628;10.850;2023-12-20T12:46:28;6.17;;;4.40;;
44862;SDS011;30597;49.628;10.850;2023-12-20T12:48:53;5.43;;;4.10;;
44862;SDS011;30597;49.628;10.850;2023-12-20T12:51:20;7.20;;;4.80;;
44862;SDS011;30597;49.628;10.850;2023-12-20T12:53:46;6.23;;;4.97;;
44862;SDS011;30597;49.628;10.850;2023-12-20T12:56:12;5.93;;;4.13;;
44862;SDS011;30597;49.628;10.850;2023-12-20T12:58:38;4.40;;;3.93;;
44862;SDS011;30597;49.628;10.850;2023-12-20T13:01:04;4.23;;;3.73;;
44862;SDS011;30597;49.628;10.850;2023-12-20T13:03:30;4.67;;;3.90;;
44862;SDS011;30597;49.628;10.850;2023-12-20T13:05:55;3.63;;;3.33;;
44862;SDS011;30597;49.628;10.850;2023-12-20T13:08:21;3.80;;;3.40;;
44862;SDS011;30597;49.628;10.850;2023-12-20T13:10:47;4.20;;;3.87;;
44862;SDS011;30597;49.628;10.850;2023-12-20T13:13:12;4.33;;;3.93;;
44862;SDS011;30597;49.628;10.850;2023-12-20T13:15:41;4.70;;;4.00;;
44862;SDS011;30597;49.628;10.850;2023-12-20T13:18:06;4.77;;;4.27;;
44862;SDS011;30597;49.628;10.850;2023-12-20T13:20:32;4.77;;;4.13;;
44862;SDS011;30597;49.628;10.850;2023-12-20T13:22:58;4.00;;;3.60;;
44862;SDS011;30597;49.628;10.850;2023-12-20T13:25:24;4.93;;;3.87;;
44862;SDS011;30597;49.628;10.850;2023-12-20T13:27:50;4.20;;;3.73;;
44862;SDS011;30597;49.628;10.850;2023-12-20T13:30:18;4.93;;;4.50;;
44862;SDS011;30597;49.628;10.850;2023-12-20T13:32:44;4.90;;;4.40;;
44862;SDS011;30597;49.628;10.850;2023-12-20T13:35:09;6.10;;;4.03;;
44862;SDS011;30597;49.628;10.850;2023-12-20T13:37:35;3.80;;;3.50;;
44862;SDS011;30597;49.628;10.850;2023-12-20T13:40:00;4.80;;;3.50;;
44862;SDS011;30597;49.628;10.850;2023-12-20T13:42:28;3.80;;;3.10;;
44862;SDS011;30597;49.628;10.850;2023-12-20T13:44:53;4.10;;;3.70;;
44862;SDS011;30597;49.628;10.850;2023-12-20T13:47:19;4.60;;;3.77;;
44862;SDS011;30597;49.628;10.850;2023-12-20T13:49:44;4.50;;;4.10;;
44862;SDS011;30597;49.628;10.850;2023-12-20T13:52:10;3.90;;;3.30;;
44862;SDS011;30597;49.628;10.850;2023-12-20T13:54:37;4.10;;;3.27;;
44862;SDS011;30597;49.628;10.850;2023-12-20T13:57:02;3.23;;;2.93;;
44862;SDS011;30597;49.628;10.850;2023-12-20T13:59:28;4.53;;;3.40;;
44862;SDS011;30597;49.628;10.850;2023-12-20T14:01:54;3.40;;;3.10;;
44862;SDS011;30597;49.628;10.850;2023-12-20T14:04:20;3.17;;;2.87;;
44862;SDS011;30597;49.628;10.850;2023-12-20T14:06:46;3.17;;;2.87;;
44862;SDS011;30597;49.628;10.850;2023-12-20T14:09:12;3.50;;;3.20;;
44862;SDS011;30597;49.628;10.850;2023-12-20T14:11:38;3.50;;;3.20;;
44862;SDS011;30597;49.628;10.850;2023-12-20T14:14:06;3.70;;;3.10;;
44862;SDS011;30597;49.628;10.850;2023-12-20T14:16:32;3.70;;;3.07;;
44862;SDS011;30597;49.628;10.850;2023-12-20T14:19:01;2.87;;;2.63;;
44862;SDS011;30597;49.628;10.850;2023-12-20T14:21:28;3.73;;;3.10;;
44862;SDS011;30597;49.628;10.850;2023-12-20T14:23:53;3.37;;;3.07;;
44862;SDS011;30597;49.628;10.850;2023-12-20T14:26:19;3.00;;;2.70;;
44862;SDS011;30597;49.628;10.850;2023-12-20T14:28:45;4.23;;;3.37;;
44862;SDS011;30597;49.628;10.850;2023-12-20T14:31:10;3.60;;;3.30;;
44862;SDS011;30597;49.628;10.850;2023-12-20T14:33:36;3.07;;;2.77;;